Time;durP1;ratioP1;P1;durP2;ratioP2;P2;SDS_P1;SDS_P2;PMS_P1;PMS_P2;Temp;Humidity;BMP_temperature;BMP_pressure;BME280_temperature;BME280_humidity;BME280_pressure;Samples;Min_cycle;Max_cycle;Signal;HPM_P1;HPM_P2
2021/08/24 00:04:10;;;;;;;2.55;2.35;;;;;;;16.49;68.32;100932.56;10381585;28;20045;-62
2021/08/24 00:09:11;;;;;;;2.17;1.98;;;;;;;16.43;68.84;100923.22;10380686;28;20103;-62
2021/08/24 00:14:13;;;;;;;7.10;3.55;;;;;;;16.39;68.71;100929.88;10381107;28;20057;-64
2021/08/24 00:19:20;;;;;;;2.67;1.88;;;;;;;16.31;68.74;100932.44;10381366;28;20107;-61
2021/08/24 00:24:22;;;;;;;3.95;2.10;;;;;;;16.28;68.70;100940.81;10377849;28;20140;-61
2021/08/24 00:29:23;;;;;;;4.15;1.95;;;;;;;16.10;69.35;100941.50;10377117;28;20069;-62
2021/08/24 00:34:25;;;;;;;3.22;1.50;;;;;;;16.20;68.85;100945.03;10379758;28;20065;-61
2021/08/24 00:39:26;;;;;;;3.33;1.45;;;;;;;16.09;68.93;100942.50;10380430;28;20080;-61
2021/08/24 00:44:28;;;;;;;3.33;1.58;;;;;;;16.05;68.64;100941.94;10380234;28;20770;-61
2021/08/24 00:49:29;;;;;;;5.68;1.55;;;;;;;16.07;68.32;100947.19;10379023;28;20111;-62
2021/08/24 00:54:31;;;;;;;3.03;1.42;;;;;;;15.90;69.05;100954.94;10378037;28;20057;-62
2021/08/24 00:59:33;;;;;;;3.75;1.80;;;;;;;15.86;69.16;100950.84;10380714;28;20132;-62
2021/08/24 01:04:36;;;;;;;3.05;1.88;;;;;;;15.66;69.57;100954.50;10378759;28;20076;-62
2021/08/24 01:09:42;;;;;;;1.80;1.48;;;;;;;15.74;70.03;100950.09;10385038;28;20234;-62
2021/08/24 01:15:04;;;;;;;2.30;1.50;;;;;;;15.75;68.81;100956.34;10386037;28;20076;-63
2021/08/24 01:20:06;;;;;;;3.25;1.80;;;;;;;15.71;70.19;100946.84;10396071;28;20107;-61
2021/08/24 01:25:31;;;;;;;2.25;1.85;;;;;;;15.60;68.77;100955.03;10385650;28;20053;-63
2021/08/24 01:31:05;;;;;;;3.63;1.50;;;;;;;15.62;69.66;100956.59;10384457;28;20041;-61
2021/08/24 01:36:31;;;;;;;3.80;2.10;;;;;;;15.30;69.91;100956.81;10381195;28;20104;-62
2021/08/24 01:42:10;;;;;;;3.53;1.90;;;;;;;15.07;70.74;100957.00;10384947;28;20479;-62
2021/08/24 01:47:21;;;;;;;2.97;1.95;;;;;;;15.13;70.54;100959.19;10381045;28;20327;-62
2021/08/24 01:52:30;;;;;;;2.50;1.67;;;;;;;15.01;71.29;100957.56;10386890;28;20069;-62
2021/08/24 01:58:03;;;;;;;2.30;1.67;;;;;;;15.12;70.83;100957.47;10385739;28;20042;-61
2021/08/24 02:03:09;;;;;;;1.88;1.70;;;;;;;15.05;71.22;100960.84;10378987;28;20065;-62
2021/08/24 02:08:16;;;;;;;2.60;1.73;;;;;;;15.11;70.69;100957.59;10381680;28;20403;-61
2021/08/24 02:13:19;;;;;;;3.40;2.20;;;;;;;15.22;70.31;100952.13;10381097;28;20050;-61
2021/08/24 02:18:35;;;;;;;2.90;2.20;;;;;;;15.19;69.87;100957.75;10385951;28;20073;-62
2021/08/24 02:23:37;;;;;;;5.55;2.20;;;;;;;14.85;71.02;100964.28;10385710;28;20624;-62
2021/08/24 02:28:43;;;;;;;4.50;1.83;;;;;;;14.90;71.60;100955.00;10380582;28;20122;-62
2021/08/24 02:33:51;;;;;;;2.83;1.80;;;;;;;14.94;70.78;100956.44;10377915;28;20042;-61
2021/08/24 02:39:16;;;;;;;2.30;1.48;;;;;;;14.85;70.62;100958.06;10381409;28;20064;-63
2021/08/24 02:44:22;;;;;;;3.55;2.05;;;;;;;14.66;71.69;100969.53;10380452;28;20053;-62
2021/08/24 02:49:29;;;;;;;3.25;1.85;;;;;;;14.71;71.44;100969.97;10379787;28;20398;-61
2021/08/24 02:54:34;;;;;;;3.30;2.15;;;;;;;14.76;71.25;100977.66;10383305;28;20054;-62
2021/08/24 02:59:37;;;;;;;3.35;1.35;;;;;;;14.72;71.32;100977.03;10380708;28;20080;-62
2021/08/24 03:04:39;;;;;;;3.80;1.45;;;;;;;14.59;71.31;100974.56;10383835;28;20057;-62
2021/08/24 03:09:42;;;;;;;1.48;1.38;;;;;;;14.67;70.90;100965.88;10385269;28;20096;-61
2021/08/24 03:14:52;;;;;;;3.33;2.13;;;;;;;14.54;70.70;100959.84;10382116;28;20112;-62
2021/08/24 03:19:54;;;;;;;3.95;1.67;;;;;;;14.56;70.69;100968.59;10382231;28;20057;-62
2021/08/24 03:24:58;;;;;;;5.97;2.10;;;;;;;14.38;71.48;100968.34;10384672;28;20477;-61
2021/08/24 03:30:03;;;;;;;4.35;1.70;;;;;;;14.45;71.28;100967.69;10384462;28;20056;-62
2021/08/24 03:35:06;;;;;;;3.65;1.45;;;;;;;14.54;70.57;100954.50;10382576;28;20054;-61
2021/08/24 03:40:07;;;;;;;2.90;2.08;;;;;;;14.32;71.49;100959.88;10379977;28;20095;-63
2021/08/24 03:45:10;;;;;;;3.63;2.17;;;;;;;14.37;71.02;100964.81;10378963;28;20084;-62
2021/08/24 03:50:12;;;;;;;2.60;1.83;;;;;;;14.24;71.71;100975.72;10383512;28;20073;-62
2021/08/24 03:55:13;;;;;;;2.95;2.00;;;;;;;14.08;71.46;100977.97;10384266;28;20069;-62
2021/08/24 04:00:15;;;;;;;3.03;1.80;;;;;;;14.08;72.09;100981.53;10383347;28;20634;-62
2021/08/24 04:05:17;;;;;;;2.40;1.77;;;;;;;14.19;71.94;100983.31;10380505;28;20125;-62
2021/08/24 04:10:18;;;;;;;3.65;1.67;;;;;;;14.23;71.14;100983.88;10379211;28;20140;-62
2021/08/24 04:15:20;;;;;;;3.63;1.92;;;;;;;14.22;71.41;100996.44;10379311;28;20769;-63
2021/08/24 04:20:21;;;;;;;3.05;2.10;;;;;;;14.31;70.80;101000.16;10382774;28;20506;-62
2021/08/24 04:25:23;;;;;;;3.80;1.58;;;;;;;14.15;71.79;101003.28;10379700;28;20045;-62
2021/08/24 04:30:24;;;;;;;3.75;2.22;;;;;;;14.25;71.34;101004.19;10379641;28;20069;-62
2021/08/24 04:35:26;;;;;;;3.10;1.50;;;;;;;14.28;71.07;101000.44;10381381;28;20080;-62
2021/08/24 04:40:30;;;;;;;4.05;1.23;;;;;;;14.07;71.03;101000.41;10382449;28;20077;-63
2021/08/24 04:45:31;;;;;;;2.33;1.50;;;;;;;14.21;71.36;101001.91;10386890;28;20103;-63
2021/08/24 04:50:33;;;;;;;3.33;1.92;;;;;;;14.11;71.38;101013.41;10389469;28;20099;-62
2021/08/24 04:55:34;;;;;;;2.15;1.38;;;;;;;14.01;72.37;101017.81;10387191;28;20574;-62
2021/08/24 05:00:38;;;;;;;3.28;1.65;;;;;;;14.19;71.91;101019.94;10386756;28;20057;-62
2021/08/24 05:05:40;;;;;;;1.60;1.50;;;;;;;14.17;70.61;101028.06;10387431;28;20140;-63
2021/08/24 05:10:41;;;;;;;3.20;1.55;;;;;;;14.33;70.33;101031.16;10390710;28;20061;-64
2021/08/24 05:15:43;;;;;;;1.90;1.38;;;;;;;14.41;69.58;101027.00;10390614;28;20076;-63
2021/08/24 05:20:44;;;;;;;5.03;1.45;;;;;;;14.44;69.75;101024.94;10386375;28;20045;-63
2021/08/24 05:25:47;;;;;;;1.77;1.50;;;;;;;14.42;69.94;101029.56;10391110;28;20119;-63
2021/08/24 05:30:51;;;;;;;3.33;1.60;;;;;;;14.54;69.33;101029.50;10387979;28;20053;-65
2021/08/24 05:35:52;;;;;;;2.75;1.55;;;;;;;14.52;68.89;101026.09;10397870;28;20498;-63
2021/08/24 05:40:55;;;;;;;2.65;1.60;;;;;;;14.59;69.19;101032.63;10388248;28;20561;-63
2021/08/24 05:46:01;;;;;;;3.38;1.50;;;;;;;14.68;68.65;101042.59;10390184;28;20800;-63
2021/08/24 05:51:11;;;;;;;4.85;1.63;;;;;;;14.80;68.28;101049.59;10383455;28;20907;-62
2021/08/24 05:56:25;;;;;;;1.98;1.30;;;;;;;14.87;68.09;101051.75;10387157;28;20057;-63
2021/08/24 06:01:29;;;;;;;2.93;1.40;;;;;;;15.16;72.27;101050.06;10380332;28;20127;-57
2021/08/24 06:06:34;;;;;;;3.15;1.70;;;;;;;15.63;67.92;101048.69;10365394;28;20441;-59
2021/08/24 06:11:40;;;;;;;3.35;1.48;;;;;;;15.90;67.19;101048.09;10365660;28;20221;-61
2021/08/24 06:16:41;;;;;;;2.63;2.08;;;;;;;16.05;64.49;101053.91;10365430;28;20072;-58
2021/08/24 06:21:43;;;;;;;3.70;1.88;;;;;;;16.15;64.72;101056.56;10368482;28;20507;-64
2021/08/24 06:26:44;;;;;;;4.55;1.77;;;;;;;15.93;65.05;101054.97;10368701;28;20068;-63
2021/08/24 06:31:50;;;;;;;1.52;1.30;;;;;;;15.89;65.42;101055.25;10363402;28;20119;-63
2021/08/24 06:36:52;;;;;;;3.70;1.35;;;;;;;15.89;65.40;101057.94;10366259;28;20542;-63
2021/08/24 06:41:53;;;;;;;1.98;1.38;;;;;;;15.93;65.31;101052.31;10364691;28;20045;-62
2021/08/24 06:46:55;;;;;;;3.53;1.67;;;;;;;16.10;66.27;101057.00;10365078;28;20210;-62
2021/08/24 06:51:57;;;;;;;2.95;1.50;;;;;;;16.26;65.18;101061.81;10369096;28;20073;-63
2021/08/24 06:57:02;;;;;;;1.90;1.67;;;;;;;16.42;65.20;101067.47;10366116;28;20131;-63
2021/08/24 07:02:06;;;;;;;3.17;1.27;;;;;;;16.60;64.44;101064.94;10362771;28;20522;-63
2021/08/24 07:07:08;;;;;;;3.05;1.30;;;;;;;16.86;64.04;101069.69;10366601;28;20691;-62
2021/08/24 07:12:10;;;;;;;2.35;1.30;;;;;;;17.11;62.59;101076.31;10366658;28;20057;-62
2021/08/24 07:17:11;;;;;;;3.25;1.45;;;;;;;17.15;61.57;101074.16;10364332;28;20061;-63
2021/08/24 07:22:13;;;;;;;3.42;1.55;;;;;;;17.21;61.33;101089.72;10363429;28;20049;-64
2021/08/24 07:27:14;;;;;;;2.85;1.95;;;;;;;17.44;61.47;101086.66;10364907;28;20057;-63
2021/08/24 07:32:16;;;;;;;1.65;1.10;;;;;;;17.66;60.95;101094.34;10366215;28;20072;-63
2021/08/24 07:37:17;;;;;;;2.33;1.38;;;;;;;17.82;60.06;101092.88;10364318;28;20132;-63
2021/08/24 07:42:19;;;;;;;5.07;2.05;;;;;;;17.83;60.71;101095.41;10374753;23;20200;-55
2021/08/24 07:47:20;;;;;;;2.75;1.23;;;;;;;18.03;59.01;101068.38;10348600;28;20772;-59
2021/08/24 07:52:22;;;;;;;2.53;1.45;;;;;;;18.33;58.36;101085.16;10349100;28;20125;-55
2021/08/24 07:57:23;;;;;;;2.10;1.30;;;;;;;18.55;57.28;101092.81;10357111;28;20603;-55
2021/08/24 08:02:25;;;;;;;4.70;2.38;;;;;;;18.73;57.28;101087.38;10350637;28;20184;-54
2021/08/24 08:07:26;;;;;;;2.17;1.38;;;;;;;18.92;56.96;101090.91;10350335;28;20053;-56
2021/08/24 08:12:28;;;;;;;1.98;1.15;;;;;;;19.11;55.91;101084.47;10353279;28;20564;-56
2021/08/24 08:17:29;;;;;;;7.90;5.47;;;;;;;19.15;54.80;101041.81;10348097;28;20054;-57
2021/08/24 08:22:31;;;;;;;3.40;2.15;;;;;;;19.67;54.66;101090.31;10353602;28;20145;-56
2021/08/24 08:27:32;;;;;;;3.55;2.40;;;;;;;19.76;53.19;101089.31;10352037;28;20069;-56
2021/08/24 08:32:37;;;;;;;5.70;3.92;;;;;;;19.86;53.51;101091.06;10355876;28;20053;-56
2021/08/24 08:37:39;;;;;;;2.65;1.13;;;;;;;20.06;53.24;101092.50;10348229;28;20534;-53
2021/08/24 08:42:45;;;;;;;1.42;0.90;;;;;;;20.38;53.10;101082.72;10350720;28;20134;-56
2021/08/24 08:48:04;;;;;;;4.63;2.25;;;;;;;20.23;52.83;101085.25;10342734;28;21556;-58
2021/08/24 08:53:52;;;;;;;3.10;1.38;;;;;;;20.65;52.43;101081.56;10353778;28;20575;-54
2021/08/24 08:59:26;;;;;;;5.05;1.98;;;;;;;21.13;51.71;101076.28;10343895;28;20624;-58
2021/08/24 09:04:37;;;;;;;3.42;1.05;;;;;;;21.54;50.82;101083.44;10345024;28;20124;-58
2021/08/24 09:09:39;;;;;;;2.08;0.82;;;;;;;21.48;50.32;101074.16;10348667;28;20107;-59
2021/08/24 09:14:46;;;;;;;17.83;13.48;;;;;;;21.66;49.77;101082.06;10349973;28;20486;-58
2021/08/24 09:19:53;;;;;;;2.10;1.23;;;;;;;21.70;49.98;101077.13;10349719;28;20390;-53
2021/08/24 09:24:55;;;;;;;4.55;1.70;;;;;;;22.06;49.46;101088.28;10346152;28;21544;-58
2021/08/24 09:29:57;;;;;;;3.17;1.48;;;;;;;22.19;49.84;101082.28;10356564;28;20069;-52
2021/08/24 09:35:11;;;;;;;2.35;1.50;;;;;;;22.80;48.39;101080.63;10351190;28;20073;-56
2021/08/24 09:40:12;;;;;;;4.45;1.70;;;;;;;23.35;46.29;101084.00;10353837;28;20148;-58
2021/08/24 09:45:20;;;;;;;3.20;1.92;;;;;;;23.79;45.10;101097.50;10359008;28;20073;-57
2021/08/24 09:50:28;;;;;;;2.92;1.63;;;;;;;23.50;45.32;101073.97;10360712;28;20131;-58
2021/08/24 09:55:35;;;;;;;3.45;1.88;;;;;;;23.99;43.83;101084.22;10356278;28;20088;-58
2021/08/24 10:00:58;;;;;;;4.80;2.17;;;;;;;24.69;43.64;101083.66;10358073;28;20096;-55
2021/08/24 10:06:20;;;;;;;;;;;;;;;25.26;41.58;101081.75;10355685;28;20053;-53
2021/08/24 10:11:31;;;;;;;4.13;1.63;;;;;;;25.03;42.14;101074.69;10350144;28;20027;-58
2021/08/24 10:16:37;;;;;;;2.07;1.13;;;;;;;25.44;41.75;101072.25;10358232;28;20061;-56
2021/08/24 10:21:57;;;;;;;2.47;1.50;;;;;;;25.77;40.46;101065.03;10358323;28;20140;-59
2021/08/24 10:27:04;;;;;;;3.05;1.55;;;;;;;29.60;34.48;101057.75;10349020;28;20065;-59
2021/08/24 10:32:10;;;;;;;2.53;1.55;;;;;;;31.80;29.81;101021.22;10359082;28;20123;-57
2021/08/24 10:37:24;;;;;;;3.90;2.63;;;;;;;32.67;28.41;101030.16;10350927;28;20099;-57
2021/08/24 10:42:29;;;;;;;1.67;1.50;;;;;;;29.89;32.45;101043.47;10354620;28;20085;-57
2021/08/24 10:47:30;;;;;;;2.92;1.30;;;;;;;29.18;34.58;101029.34;10353333;28;20148;-59
2021/08/24 10:52:45;;;;;;;2.40;1.30;;;;;;;31.90;30.51;101038.78;10356216;28;20585;-55
2021/08/24 10:58:01;;;;;;;3.92;2.22;;;;;;;34.85;26.09;101042.25;10349261;28;20057;-56
2021/08/24 11:03:41;;;;;;;1.80;1.70;;;;;;;33.61;25.90;101042.19;10350326;28;20073;-54
2021/08/24 11:09:20;;;;;;;2.30;1.80;;;;;;;32.36;28.25;101043.44;10320203;28;20183;-54
2021/08/24 11:14:31;;;;;;;2.08;1.30;;;;;;;32.82;28.23;101046.09;10355961;28;20714;-54
2021/08/24 11:19:44;;;;;;;3.15;2.75;;;;;;;31.21;29.85;101052.47;10367571;28;20459;-58
2021/08/24 11:25:12;;;;;;;3.22;2.13;;;;;;;28.36;34.54;101047.59;10353251;28;20356;-53
2021/08/24 11:30:16;;;;;;;3.15;1.52;;;;;;;26.76;38.17;101059.16;10353754;28;20139;-58
2021/08/24 11:35:28;;;;;;;1.92;1.73;;;;;;;26.09;39.96;101062.66;10353322;28;20069;-53
2021/08/24 11:40:38;;;;;;;4.00;1.77;;;;;;;25.04;41.05;101067.34;10351696;28;20490;-58
2021/08/24 11:45:47;;;;;;;12.05;10.80;;;;;;;24.28;43.36;101071.53;10348302;28;21011;-54
2021/08/24 11:51:16;;;;;;;3.30;2.45;;;;;;;23.84;43.94;101053.47;10352939;28;20172;-56
2021/08/24 11:56:27;;;;;;;3.53;2.13;;;;;;;23.41;45.11;101086.78;10369704;28;20050;-55
2021/08/24 12:01:32;;;;;;;3.05;2.00;;;;;;;23.09;45.61;101086.13;10364449;28;20112;-53
2021/08/24 12:06:42;;;;;;;2.28;2.08;;;;;;;22.78;46.48;101100.63;10346727;28;20049;-51
2021/08/24 12:11:49;;;;;;;4.40;2.25;;;;;;;22.93;46.99;101092.53;10351037;28;20381;-54
2021/08/24 12:17:17;;;;;;;3.00;2.05;;;;;;;23.08;46.03;101083.56;10348667;28;20148;-58
2021/08/24 12:22:57;;;;;;;4.40;2.00;;;;;;;23.38;45.72;101086.34;10344483;28;20272;-58
2021/08/24 12:28:00;;;;;;;3.20;2.00;;;;;;;23.27;46.13;101079.50;10348306;28;20421;-56
2021/08/24 12:33:09;;;;;;;3.60;2.10;;;;;;;23.12;45.82;101082.22;10350546;28;20174;-56
2021/08/24 12:38:42;;;;;;;4.50;2.20;;;;;;;23.12;45.79;101085.75;10356843;28;20144;-57
2021/08/24 12:43:49;;;;;;;2.53;1.93;;;;;;;23.80;44.47;101076.63;10353944;28;20046;-55
2021/08/24 12:49:22;;;;;;;4.03;2.13;;;;;;;24.65;42.65;101071.47;10356093;28;20186;-57
2021/08/24 12:54:30;;;;;;;2.63;2.22;;;;;;;25.46;40.71;101056.50;10366931;28;20181;-54
2021/08/24 12:59:35;;;;;;;2.70;2.00;;;;;;;25.83;40.66;101062.53;10358267;28;20054;-54
2021/08/24 13:04:38;;;;;;;1.48;1.27;;;;;;;26.97;38.73;101079.91;10364801;28;20053;-54
2021/08/24 13:09:41;;;;;;;4.82;1.52;;;;;;;27.43;37.36;101079.00;10365816;28;20118;-56
2021/08/24 13:14:44;;;;;;;4.75;1.90;;;;;;;28.10;35.34;101080.63;10364558;28;20068;-54
2021/08/24 13:19:50;;;;;;;3.58;2.42;;;;;;;26.48;37.35;101065.59;10364881;28;20136;-54
2021/08/24 13:24:52;;;;;;;4.13;2.65;;;;;;;26.09;38.88;101070.84;10369572;28;20123;-56
2021/08/24 13:29:55;;;;;;;3.28;2.03;;;;;;;26.16;38.97;101068.09;10355361;28;20092;-56
2021/08/24 13:34:58;;;;;;;2.47;1.95;;;;;;;26.16;39.46;101048.19;10358576;28;20081;-54
2021/08/24 13:40:05;;;;;;;3.83;1.95;;;;;;;26.64;38.86;101058.91;10356559;28;20396;-59
2021/08/24 13:45:13;;;;;;;2.65;1.80;;;;;;;26.50;38.28;101060.81;10346568;22;20094;-65
2021/08/24 13:50:25;;;;;;;4.90;2.33;;;;;;;26.55;38.49;101043.78;10301860;28;20152;-65
2021/08/24 13:55:29;;;;;;;2.63;2.03;;;;;;;26.64;38.72;101031.59;10303478;28;20065;-65
2021/08/24 14:00:30;;;;;;;3.40;2.25;;;;;;;26.62;37.65;101044.63;10300276;28;20129;-65
2021/08/24 14:05:33;;;;;;;2.78;1.75;;;;;;;26.27;37.87;101031.16;10296628;28;20675;-66
2021/08/24 14:10:34;;;;;;;3.95;1.88;;;;;;;26.03;39.08;101025.28;10299950;28;20060;-69
2021/08/24 14:15:40;;;;;;;3.35;1.73;;;;;;;25.68;39.22;101025.34;10296735;28;20605;-65
2021/08/24 14:20:45;;;;;;;2.45;2.13;;;;;;;25.18;39.80;101028.25;10300706;28;20053;-65
2021/08/24 14:25:55;;;;;;;3.15;1.92;;;;;;;24.95;40.26;101019.53;10298475;28;20640;-65
2021/08/24 14:30:58;;;;;;;4.70;1.80;;;;;;;24.49;40.93;101007.25;10298136;28;20247;-64
2021/08/24 14:36:04;;;;;;;3.80;2.17;;;;;;;24.60;41.15;101014.91;10292945;28;20050;-64
2021/08/24 14:41:24;;;;;;;3.38;2.22;;;;;;;24.34;40.94;101016.34;10296914;28;20135;-65
2021/08/24 14:46:31;;;;;;;2.83;2.10;;;;;;;24.32;41.16;101007.53;10295890;28;20184;-64
2021/08/24 14:51:34;;;;;;;3.70;1.98;;;;;;;24.20;40.68;101014.56;10299507;28;20438;-64
2021/08/24 14:56:38;;;;;;;4.20;1.60;;;;;;;24.07;41.42;101015.25;10299041;28;20078;-65
2021/08/24 15:02:11;;;;;;;2.92;2.20;;;;;;;24.00;41.08;101031.53;10311820;28;20123;-65
2021/08/24 15:07:16;;;;;;;3.17;2.05;;;;;;;24.10;41.44;101022.19;10295572;28;20064;-65
2021/08/24 15:12:27;;;;;;;2.92;1.90;;;;;;;24.15;41.04;101017.00;10293257;28;20096;-65
2021/08/24 15:17:33;;;;;;;4.50;2.03;;;;;;;24.14;41.51;101009.88;10292276;28;20185;-64
2021/08/24 15:22:38;;;;;;;1.70;1.50;;;;;;;23.87;41.15;101028.66;10305168;28;20082;-64
2021/08/24 15:27:54;;;;;;;2.15;1.52;;;;;;;23.80;41.18;101019.56;10298535;28;20065;-65
2021/08/24 15:33:01;;;;;;;3.03;2.03;;;;;;;23.47;41.51;101018.13;10296676;28;20136;-66
2021/08/24 15:38:06;;;;;;;2.20;1.58;;;;;;;23.65;42.22;101009.53;10291782;28;20138;-64
2021/08/24 15:43:08;;;;;;;5.05;2.05;;;;;;;23.50;42.60;101002.47;10295679;28;20094;-69
2021/08/24 15:48:09;;;;;;;2.25;1.67;;;;;;;23.64;42.74;101007.88;10295577;28;20125;-64
2021/08/24 15:53:10;;;;;;;2.20;1.70;;;;;;;23.32;43.17;101005.59;10295034;28;20190;-64
2021/08/24 15:58:12;;;;;;;4.00;2.00;;;;;;;22.97;43.87;101010.72;10289467;28;20134;-64
2021/08/24 16:03:15;;;;;;;2.67;1.60;;;;;;;22.86;43.80;101006.59;10292481;28;20128;-64
2021/08/24 16:08:17;;;;;;;3.03;1.73;;;;;;;22.88;43.62;101010.81;10280564;28;20050;-64
2021/08/24 16:13:20;;;;;;;2.00;1.75;;;;;;;22.98;42.88;101010.53;10285992;28;20153;-64
2021/08/24 16:18:27;;;;;;;3.50;2.50;;;;;;;22.89;43.06;101004.34;10290394;28;20061;-64
2021/08/24 16:23:29;;;;;;;4.78;2.05;;;;;;;22.76;42.65;101006.88;10283314;28;20137;-65
2021/08/24 16:28:30;;;;;;;3.22;2.28;;;;;;;22.78;42.97;100994.81;10291685;28;20520;-65
2021/08/24 16:33:32;;;;;;;3.40;2.55;;;;;;;22.66;43.68;100995.47;10287339;28;20577;-65
2021/08/24 16:38:34;;;;;;;4.43;2.72;;;;;;;22.53;43.64;100996.94;10294377;28;20049;-64
2021/08/24 16:43:42;;;;;;;3.97;2.08;;;;;;;22.40;44.11;100996.72;10303964;28;20132;-65
2021/08/24 16:48:45;;;;;;;3.03;2.45;;;;;;;22.26;43.81;100995.59;10307484;28;20187;-65
2021/08/24 16:53:46;;;;;;;2.88;1.90;;;;;;;22.18;43.90;100988.38;10306602;28;20136;-64
2021/08/24 16:58:48;;;;;;;3.03;2.08;;;;;;;22.17;43.99;100989.44;10296043;28;20130;-65
2021/08/24 17:03:49;;;;;;;4.63;2.00;;;;;;;22.04;43.96;100992.75;10297890;28;20081;-59
2021/08/24 17:08:51;;;;;;;4.90;3.10;;;;;;;21.93;43.97;100989.59;10299789;28;20050;-59
2021/08/24 17:13:52;;;;;;;5.28;3.22;;;;;;;21.83;44.74;100990.69;10295032;28;20128;-58
2021/08/24 17:18:53;;;;;;;4.72;2.88;;;;;;;21.66;44.98;100994.50;10298062;28;20474;-58
2021/08/24 17:23:55;;;;;;;3.17;2.17;;;;;;;21.57;44.66;100998.28;10297853;28;20046;-58
2021/08/24 17:28:57;;;;;;;3.72;2.50;;;;;;;21.62;45.73;100990.47;10300102;28;20690;-58
2021/08/24 17:33:59;;;;;;;3.10;1.95;;;;;;;21.48;45.60;100998.31;10299890;28;20128;-58
2021/08/24 17:39:00;;;;;;;3.50;2.60;;;;;;;21.39;46.28;100999.34;10295216;28;20124;-58
2021/08/24 17:44:05;;;;;;;2.38;1.88;;;;;;;21.37;46.36;101013.06;10289146;28;20146;-60
2021/08/24 17:49:10;;;;;;;5.35;2.67;;;;;;;21.32;47.09;101009.22;10291915;28;20137;-58
2021/08/24 17:54:12;;;;;;;3.38;2.42;;;;;;;21.16;46.90;101016.38;10290057;28;20101;-59
2021/08/24 17:59:13;;;;;;;4.75;2.50;;;;;;;21.02;47.98;101004.41;10288669;28;20389;-58
2021/08/24 18:04:15;;;;;;;2.75;1.90;;;;;;;20.92;48.11;101002.94;10292937;28;20511;-57
2021/08/24 18:09:24;;;;;;;3.35;2.47;;;;;;;20.73;48.25;100999.59;10293473;28;20145;-57
2021/08/24 18:14:29;;;;;;;3.60;2.20;;;;;;;20.67;48.31;101000.25;10290564;28;20052;-57
2021/08/24 18:19:30;;;;;;;3.35;1.85;;;;;;;20.53;48.53;100995.53;10290005;28;20149;-63
2021/08/24 18:24:33;;;;;;;4.18;2.22;;;;;;;20.43;48.34;100996.56;10286057;28;20137;-58
2021/08/24 18:29:34;;;;;;;2.87;2.10;;;;;;;20.35;48.57;100991.16;10290668;28;20080;-57
2021/08/24 18:34:36;;;;;;;2.80;1.88;;;;;;;20.24;48.49;100995.03;10290969;28;20097;-61
2021/08/24 18:39:37;;;;;;;3.67;2.15;;;;;;;20.10;48.75;100999.28;10292541;28;20046;-62
2021/08/24 18:44:39;;;;;;;3.67;2.70;;;;;;;20.09;48.83;100997.56;10291546;28;21372;-57
2021/08/24 18:49:42;;;;;;;3.83;1.85;;;;;;;19.97;49.44;100998.91;10288284;28;20686;-60
2021/08/24 18:54:43;;;;;;;4.18;3.20;;;;;;;19.86;49.58;100993.81;10285120;28;20118;-61
2021/08/24 18:59:45;;;;;;;3.47;2.17;;;;;;;19.84;49.84;101007.50;10286173;28;20074;-64
2021/08/24 19:04:46;;;;;;;3.85;2.40;;;;;;;19.72;49.36;101001.53;10287613;28;20157;-57
2021/08/24 19:09:51;;;;;;;4.05;2.38;;;;;;;19.69;49.68;101001.03;10284249;28;20412;-58
2021/08/24 19:14:52;;;;;;;4.88;2.17;;;;;;;19.63;49.70;101002.53;10283281;28;20093;-57
2021/08/24 19:19:54;;;;;;;2.38;1.83;;;;;;;19.57;50.29;100997.78;10288420;28;20415;-57
2021/08/24 19:24:55;;;;;;;3.80;1.90;;;;;;;19.52;51.00;101005.53;10281545;28;20046;-57
2021/08/24 19:29:58;;;;;;;2.83;2.03;;;;;;;19.49;50.85;101008.56;10283034;28;20058;-60
2021/08/24 19:35:00;;;;;;;5.70;2.30;;;;;;;19.39;51.10;100998.72;10287482;28;20057;-58
2021/08/24 19:40:04;;;;;;;4.72;2.65;;;;;;;19.34;51.49;101011.88;10295323;28;20109;-63
2021/08/24 19:45:08;;;;;;;2.92;2.10;;;;;;;19.28;51.45;101015.22;10347441;23;20077;-57
2021/08/24 19:50:11;;;;;;;2.83;2.35;;;;;;;19.17;51.90;101012.81;10369925;28;20073;-57
2021/08/24 19:55:19;;;;;;;3.78;2.47;;;;;;;19.07;52.09;101019.16;10378728;28;20072;-57
2021/08/24 20:00:21;;;;;;;3.17;1.90;;;;;;;18.83;52.97;101000.13;10381689;28;20045;-57
2021/08/24 20:05:25;;;;;;;3.80;2.42;;;;;;;18.64;53.60;101022.75;10384087;28;20053;-56
2021/08/24 20:10:27;;;;;;;6.15;2.50;;;;;;;18.42;54.39;101014.19;10384153;28;20042;-56
2021/08/24 20:15:50;;;;;;;3.85;2.40;;;;;;;18.37;55.42;101008.38;10383713;28;20541;-57
2021/08/24 20:20:52;;;;;;;3.73;2.73;;;;;;;18.35;55.31;101007.72;10384599;28;20037;-58
2021/08/24 20:25:56;;;;;;;5.88;2.10;;;;;;;18.24;56.02;101006.13;10379964;28;20502;-60
2021/08/24 20:30:58;;;;;;;4.05;2.45;;;;;;;18.32;55.87;101006.16;10384112;28;20156;-57
2021/08/24 20:36:00;;;;;;;3.20;2.10;;;;;;;18.14;56.55;101010.72;10383304;28;20061;-57
2021/08/24 20:41:03;;;;;;;5.53;2.83;;;;;;;18.23;56.45;101015.19;10384921;28;20057;-57
2021/08/24 20:46:06;;;;;;;3.70;2.23;;;;;;;18.26;56.21;101003.25;10379470;28;20072;-57
2021/08/24 20:51:09;;;;;;;3.65;2.33;;;;;;;18.23;56.36;101011.66;10378265;28;20292;-57
2021/08/24 20:56:10;;;;;;;3.17;2.35;;;;;;;18.16;56.69;101019.50;10378489;28;20069;-57
2021/08/24 21:01:29;;;;;;;4.18;2.10;;;;;;;18.15;56.65;101017.78;10384308;28;20133;-57
2021/08/24 21:06:33;;;;;;;5.03;2.10;;;;;;;18.00;56.65;100996.81;10379944;28;20056;-57
2021/08/24 21:11:35;;;;;;;4.30;2.47;;;;;;;18.12;57.05;101007.31;10379265;28;20124;-57
2021/08/24 21:16:37;;;;;;;4.22;2.70;;;;;;;18.07;57.41;101006.97;10378294;28;20106;-57
2021/08/24 21:21:39;;;;;;;4.60;2.50;;;;;;;18.00;57.45;101009.44;10378232;28;20075;-57
2021/08/24 21:26:40;;;;;;;4.97;2.60;;;;;;;17.94;57.42;101010.88;10386571;28;20081;-57
2021/08/24 21:31:42;;;;;;;3.33;1.80;;;;;;;17.80;57.77;101008.69;10388481;28;20128;-57
2021/08/24 21:36:45;;;;;;;4.03;2.33;;;;;;;17.77;58.49;100998.22;10383405;28;20053;-57
2021/08/24 21:41:46;;;;;;;5.53;2.85;;;;;;;17.69;58.75;100998.16;10394798;28;20092;-57
2021/08/24 21:46:48;;;;;;;3.33;2.28;;;;;;;17.70;58.87;101002.50;10386577;28;20057;-59
2021/08/24 21:51:50;;;;;;;2.75;2.22;;;;;;;17.65;59.02;101001.16;10381625;28;20073;-57
2021/08/24 21:56:52;;;;;;;2.30;2.00;;;;;;;17.66;59.02;101000.13;10397286;28;20122;-57
2021/08/24 22:01:53;;;;;;;3.88;2.45;;;;;;;17.52;58.87;100983.63;10383721;28;20045;-56
2021/08/24 22:06:55;;;;;;;7.05;2.67;;;;;;;17.42;59.48;100983.72;10382832;28;20056;-57
2021/08/24 22:11:57;;;;;;;4.97;2.17;;;;;;;17.47;59.11;100992.16;10385239;28;20137;-57
2021/08/24 22:16:59;;;;;;;3.60;1.98;;;;;;;17.41;59.67;101000.84;10384620;28;20053;-57
2021/08/24 22:22:03;;;;;;;3.85;3.17;;;;;;;17.28;60.34;101009.28;10384867;28;20136;-58
2021/08/24 22:27:07;;;;;;;3.35;2.08;;;;;;;17.32;60.05;101013.34;10399322;28;20117;-58
2021/08/24 22:32:14;;;;;;;;;;;;;;;17.27;59.97;101011.09;10383083;28;20124;-57
2021/08/24 22:37:20;;;;;;;5.13;2.50;;;;;;;17.22;60.04;101002.66;10383706;28;19975;-57
2021/08/24 22:42:22;;;;;;;3.30;2.67;;;;;;;17.19;60.18;101005.63;10381176;28;20053;-57
2021/08/24 22:47:24;;;;;;;4.07;2.47;;;;;;;17.06;60.59;100997.06;10383493;28;20121;-57
2021/08/24 22:52:25;;;;;;;3.08;2.05;;;;;;;17.01;60.54;101002.00;10383154;28;20069;-56
2021/08/24 22:57:27;;;;;;;3.67;2.10;;;;;;;17.01;60.61;100997.50;10380264;28;20478;-57
2021/08/24 23:02:29;;;;;;;3.20;2.10;;;;;;;16.98;61.33;101002.31;10382049;28;20049;-57
2021/08/24 23:07:30;;;;;;;4.22;2.65;;;;;;;16.94;61.33;100997.22;10378142;28;20056;-57
2021/08/24 23:12:32;;;;;;;3.60;2.80;;;;;;;16.95;61.60;100996.25;10381957;28;20129;-57
2021/08/24 23:17:33;;;;;;;6.80;2.60;;;;;;;16.93;61.23;100994.69;10381918;28;20061;-57
2021/08/24 23:22:35;;;;;;;5.60;2.70;;;;;;;16.81;61.58;100979.69;10381686;28;20137;-59
2021/08/24 23:27:37;;;;;;;4.38;2.65;;;;;;;16.88;61.39;100997.81;10381034;28;20069;-57